createdAt,value
2022-12-08T00:00:54.928Z,1.21
2022-12-08T00:03:21.885Z,1.23
2022-12-08T00:05:49.798Z,1.24
2022-12-08T00:08:16.587Z,1.26
2022-12-08T00:10:50.797Z,1.28
2022-12-08T00:13:18.818Z,1.30
2022-12-08T00:15:45.387Z,1.31
2022-12-08T00:18:12.168Z,1.33
2022-12-08T00:20:38.859Z,1.35
2022-12-08T00:23:05.440Z,1.38
2022-12-08T00:25:35.712Z,1.41
2022-12-08T00:28:02.368Z,1.43
2022-12-08T00:30:30.502Z,1.47
2022-12-08T00:32:57.167Z,1.49
2022-12-08T00:35:23.857Z,1.51
2022-12-08T00:37:50.401Z,1.54
2022-12-08T00:40:17.188Z,1.56
2022-12-08T00:42:43.778Z,1.59
2022-12-08T00:45:11.574Z,1.62
2022-12-08T00:47:39.573Z,1.64
2022-12-08T00:50:07.427Z,1.65
2022-12-08T00:52:34.060Z,1.69
2022-12-08T00:55:00.699Z,1.70
2022-12-08T00:57:27.429Z,1.70
2022-12-08T00:59:54.007Z,1.72
2022-12-08T01:02:20.599Z,1.73
2022-12-08T01:04:48.536Z,1.75
2022-12-08T01:07:15.169Z,1.78
2022-12-08T01:09:41.873Z,1.81
2022-12-08T01:12:09.093Z,1.83
2022-12-08T01:14:37.026Z,1.83
2022-12-08T01:17:03.953Z,1.85
2022-12-08T01:19:30.673Z,1.87
2022-12-08T01:21:59.487Z,1.89
2022-12-08T01:24:26.920Z,1.90
2022-12-08T01:26:53.495Z,1.92
2022-12-08T01:29:20.093Z,1.92
2022-12-08T01:31:46.707Z,1.94
2022-12-08T01:34:13.304Z,1.95
2022-12-08T01:36:41.173Z,1.96
2022-12-08T01:39:14.043Z,1.98
2022-12-08T01:41:41.354Z,1.99
2022-12-08T01:44:45.349Z,1.99
2022-12-08T01:47:12.038Z,2.00
2022-12-08T01:49:38.664Z,2.00
2022-12-08T01:52:11.001Z,1.99
2022-12-08T01:54:44.239Z,2.00
2022-12-08T01:57:16.816Z,2.00
2022-12-08T01:59:49.824Z,2.01
2022-12-08T02:02:16.484Z,2.02
2022-12-08T02:04:43.115Z,2.03
2022-12-08T02:07:12.266Z,2.03
2022-12-08T02:09:41.754Z,2.04
2022-12-08T02:12:09.861Z,2.05
2022-12-08T02:14:36.647Z,2.06
2022-12-08T02:17:10.535Z,2.06
2022-12-08T02:20:04.377Z,2.08
2022-12-08T02:22:39.793Z,2.09
2022-12-08T02:25:15.939Z,2.10
2022-12-08T02:27:52.035Z,2.10
2022-12-08T02:30:22.063Z,2.09
2022-12-08T02:33:13.570Z,2.08
2022-12-08T02:35:47.666Z,2.08
2022-12-08T02:38:24.081Z,2.09
2022-12-08T02:41:00.935Z,2.08
2022-12-08T02:43:33.819Z,2.07
2022-12-08T02:46:03.482Z,2.09
2022-12-08T02:48:32.426Z,2.11
2022-12-08T02:51:01.029Z,2.10
2022-12-08T02:53:30.528Z,2.10
2022-12-08T02:56:03.265Z,2.11
2022-12-08T02:59:02.188Z,2.12
2022-12-08T03:02:02.045Z,2.13
2022-12-08T03:04:38.330Z,2.13
2022-12-08T03:07:11.363Z,2.13
2022-12-08T03:09:41.854Z,2.14
2022-12-08T03:12:16.954Z,2.14
2022-12-08T03:14:49.869Z,2.16
2022-12-08T03:17:19.327Z,2.18
2022-12-08T03:19:48.690Z,2.17
2022-12-08T03:22:21.898Z,2.16
2022-12-08T03:24:49.355Z,2.17
2022-12-08T03:27:19.785Z,2.19
2022-12-08T03:29:47.247Z,2.18
2022-12-08T03:32:21.985Z,2.18
2022-12-08T03:34:51.506Z,2.17
2022-12-08T03:37:20.759Z,2.17
2022-12-08T03:39:47.441Z,2.18
2022-12-08T03:42:14.051Z,2.17
2022-12-08T03:44:40.738Z,2.19
2022-12-08T03:47:07.312Z,2.19
2022-12-08T03:49:33.956Z,2.18
2022-12-08T03:52:00.654Z,2.19
2022-12-08T03:54:28.728Z,2.19
2022-12-08T03:56:55.382Z,2.18
2022-12-08T03:59:21.917Z,2.18
2022-12-08T04:01:48.677Z,2.18
2022-12-08T04:04:15.328Z,2.20
2022-12-08T04:06:41.935Z,2.19
2022-12-08T04:09:09.395Z,2.18
2022-12-08T04:11:37.415Z,2.17
2022-12-08T04:14:04.023Z,2.15
2022-12-08T04:16:30.793Z,2.14
2022-12-08T04:18:57.546Z,2.14
2022-12-08T04:21:24.170Z,2.16
2022-12-08T04:23:52.146Z,2.15
2022-12-08T04:26:21.525Z,2.16
2022-12-08T04:28:49.523Z,2.17
2022-12-08T04:31:16.153Z,2.18
2022-12-08T04:33:42.778Z,2.20
2022-12-08T04:36:09.767Z,2.19
2022-12-08T04:38:36.402Z,2.16
2022-12-08T04:41:03.215Z,2.15
2022-12-08T04:43:29.833Z,2.15
2022-12-08T04:45:57.831Z,2.15
2022-12-08T04:48:24.497Z,2.15
2022-12-08T04:50:51.104Z,2.15
2022-12-08T04:53:17.789Z,2.16
2022-12-08T04:55:44.940Z,2.17
2022-12-08T04:58:12.705Z,2.19
2022-12-08T05:00:39.298Z,2.20
2022-12-08T05:03:07.404Z,2.22
2022-12-08T05:05:34.022Z,2.23
2022-12-08T05:08:00.691Z,2.24
2022-12-08T05:10:27.539Z,2.27
2022-12-08T05:12:54.083Z,2.26
2022-12-08T05:15:20.688Z,2.26
2022-12-08T05:17:47.246Z,2.28
2022-12-08T05:20:15.389Z,2.28
2022-12-08T05:22:41.983Z,2.30
2022-12-08T05:25:09.289Z,2.30
2022-12-08T05:27:36.460Z,2.32
2022-12-08T05:30:03.752Z,2.33
2022-12-08T05:32:30.593Z,2.33
2022-12-08T05:34:57.129Z,2.32
2022-12-08T05:37:25.103Z,2.32
2022-12-08T05:39:51.655Z,2.33
2022-12-08T05:42:23.173Z,2.34
2022-12-08T05:44:51.313Z,2.35
2022-12-08T05:47:17.894Z,2.36
2022-12-08T05:49:44.488Z,2.36
2022-12-08T05:52:11.145Z,2.39
2022-12-08T05:54:39.072Z,2.39
2022-12-08T05:57:05.610Z,2.39
2022-12-08T05:59:32.353Z,2.40
2022-12-08T06:01:59.128Z,2.40
2022-12-08T06:04:25.830Z,2.41
2022-12-08T06:06:52.396Z,2.41
2022-12-08T06:09:18.958Z,2.41
2022-12-08T06:11:46.865Z,2.40
2022-12-08T06:14:13.745Z,2.39
2022-12-08T06:16:40.414Z,2.38
2022-12-08T06:19:07.057Z,2.38
2022-12-08T06:21:33.843Z,2.37
2022-12-08T06:24:00.432Z,2.36
2022-12-08T06:26:27.061Z,2.36
2022-12-08T06:28:55.044Z,2.37
2022-12-08T06:31:23.541Z,2.37
2022-12-08T06:33:50.931Z,2.38
2022-12-08T06:36:19.776Z,2.38
2022-12-08T06:38:46.705Z,2.39
2022-12-08T06:41:13.678Z,2.41
2022-12-08T06:43:40.275Z,2.41
2022-12-08T06:46:10.776Z,2.44
2022-12-08T06:48:37.423Z,2.45
2022-12-08T06:51:08.833Z,2.47
2022-12-08T06:53:35.395Z,2.49
2022-12-08T06:56:02.103Z,2.51
2022-12-08T06:58:28.855Z,2.53
2022-12-08T07:00:55.550Z,2.54
2022-12-08T07:03:23.614Z,2.55
2022-12-08T07:05:50.210Z,2.56
2022-12-08T07:08:16.898Z,2.57
2022-12-08T07:10:43.513Z,2.57
2022-12-08T07:13:10.117Z,2.58
2022-12-08T07:15:36.797Z,2.59
2022-12-08T07:18:03.613Z,2.60
2022-12-08T07:20:31.577Z,2.60
2022-12-08T07:22:58.372Z,2.60
2022-12-08T07:25:24.951Z,2.61
2022-12-08T07:27:51.600Z,2.61
2022-12-08T07:30:18.657Z,2.62
2022-12-08T07:32:45.794Z,2.63
2022-12-08T07:35:12.456Z,2.63
2022-12-08T07:37:40.441Z,2.62
2022-12-08T07:40:09.246Z,2.64
2022-12-08T07:42:35.995Z,2.64
2022-12-08T07:45:02.611Z,2.65
2022-12-08T07:47:29.203Z,2.66
2022-12-08T07:49:55.808Z,2.67
2022-12-08T07:52:22.421Z,2.68
2022-12-08T07:54:50.422Z,2.68
2022-12-08T07:57:17.091Z,2.70
2022-12-08T07:59:43.726Z,2.71
2022-12-08T08:02:25.734Z,2.72
2022-12-08T08:04:53.127Z,2.72
2022-12-08T08:07:19.820Z,2.75
2022-12-08T08:09:46.409Z,2.77
2022-12-08T08:12:30.674Z,2.78
2022-12-08T08:14:58.523Z,2.80
2022-12-08T08:17:25.311Z,2.83
2022-12-08T08:19:51.955Z,2.86
2022-12-08T08:22:18.555Z,2.89
2022-12-08T08:24:45.438Z,2.93
2022-12-08T08:27:13.677Z,2.98
2022-12-08T08:29:40.224Z,2.99
2022-12-08T08:32:06.812Z,3.02
2022-12-08T08:34:33.455Z,3.03
2022-12-08T08:37:00.285Z,3.05
2022-12-08T08:39:27.156Z,3.06
2022-12-08T08:41:53.855Z,3.08
2022-12-08T08:44:21.802Z,3.11
2022-12-08T08:46:48.403Z,3.15
2022-12-08T08:49:15.066Z,3.19
2022-12-08T08:51:41.735Z,3.25
2022-12-08T08:54:08.324Z,3.29
2022-12-08T08:56:35.031Z,3.34
2022-12-08T08:59:01.705Z,3.36
2022-12-08T09:01:30.241Z,3.39
2022-12-08T09:03:57.058Z,3.38
2022-12-08T09:06:24.715Z,3.41
2022-12-08T09:08:51.939Z,3.43
2022-12-08T09:11:18.800Z,3.45
2022-12-08T09:13:47.861Z,3.48
2022-12-08T09:16:14.496Z,3.49
2022-12-08T09:18:42.498Z,3.51
2022-12-08T09:21:11.100Z,3.53
2022-12-08T09:23:37.756Z,3.55
2022-12-08T09:26:05.233Z,3.57
2022-12-08T09:28:31.813Z,3.60
2022-12-08T09:30:58.469Z,3.61
2022-12-08T09:33:25.174Z,3.63
2022-12-08T09:35:53.240Z,3.65
2022-12-08T09:38:19.876Z,3.67
2022-12-08T09:40:50.489Z,3.66
2022-12-08T09:43:31.428Z,3.65
2022-12-08T09:45:59.337Z,3.66
2022-12-08T09:48:31.791Z,3.65
2022-12-08T09:50:59.872Z,3.65
2022-12-08T09:53:35.902Z,3.65
2022-12-08T09:56:08.539Z,3.68
2022-12-08T09:58:48.069Z,3.67
2022-12-08T10:01:15.542Z,3.68
2022-12-08T10:03:43.036Z,3.72
2022-12-08T10:06:19.957Z,3.74
2022-12-08T10:08:56.110Z,3.77
2022-12-08T10:11:29.225Z,3.80
2022-12-08T10:14:03.159Z,3.85
2022-12-08T10:16:34.718Z,3.88
2022-12-08T10:19:13.345Z,3.92
2022-12-08T10:21:41.479Z,3.95
2022-12-08T10:24:15.459Z,3.96
2022-12-08T10:26:42.844Z,3.97
2022-12-08T10:29:13.089Z,4.00
2022-12-08T10:31:39.903Z,4.02
2022-12-08T10:34:17.363Z,4.02
2022-12-08T10:36:53.027Z,4.04
2022-12-08T10:39:34.702Z,4.07
2022-12-08T10:42:06.278Z,4.07
2022-12-08T10:44:33.111Z,4.09
2022-12-08T10:46:59.957Z,4.12
2022-12-08T10:49:31.761Z,4.13
2022-12-08T10:51:59.923Z,4.14
2022-12-08T10:54:29.226Z,4.14
2022-12-08T10:56:57.044Z,4.16
2022-12-08T10:59:24.541Z,4.15
2022-12-08T11:01:52.928Z,4.14
2022-12-08T11:04:21.721Z,4.13
2022-12-08T11:06:50.036Z,4.12
2022-12-08T11:09:32.419Z,4.08
2022-12-08T11:12:00.853Z,4.03
2022-12-08T11:14:29.935Z,3.99
2022-12-08T11:17:04.739Z,3.97
2022-12-08T11:19:31.538Z,3.96
2022-12-08T11:21:58.248Z,3.97
2022-12-08T11:24:32.303Z,3.98
2022-12-08T11:27:02.476Z,4.04
2022-12-08T11:29:32.663Z,4.08
2022-12-08T11:32:02.736Z,4.13
2022-12-08T11:34:35.413Z,4.15
2022-12-08T11:37:04.983Z,4.18
2022-12-08T11:39:36.343Z,4.20
2022-12-08T11:42:05.790Z,4.22
2022-12-08T11:44:38.776Z,4.25
2022-12-08T11:47:10.581Z,4.27
2022-12-08T11:49:39.178Z,4.26
2022-12-08T11:52:17.384Z,4.26
2022-12-08T11:54:52.106Z,4.27
2022-12-08T11:57:23.246Z,4.29
2022-12-08T11:59:52.014Z,4.31
2022-12-08T12:02:22.038Z,4.35
2022-12-08T12:04:54.432Z,4.40
2022-12-08T12:07:53.041Z,4.42
2022-12-08T12:10:39.659Z,4.45
2022-12-08T12:13:19.374Z,4.49
2022-12-08T12:16:19.535Z,4.51
2022-12-08T12:18:50.927Z,4.49
2022-12-08T12:21:22.320Z,4.47
2022-12-08T12:23:54.255Z,4.44
2022-12-08T12:26:24.781Z,4.44
2022-12-08T12:28:55.830Z,4.41
2022-12-08T12:31:26.033Z,4.39
2022-12-08T12:33:57.142Z,4.39
2022-12-08T12:36:24.102Z,4.41
2022-12-08T12:38:55.331Z,4.40
2022-12-08T12:41:28.014Z,4.40
2022-12-08T12:44:20.844Z,4.40
2022-12-08T12:46:57.205Z,4.41
2022-12-08T12:50:05.535Z,4.42
2022-12-08T12:52:53.429Z,4.42
2022-12-08T12:55:29.741Z,4.39
2022-12-08T12:58:01.654Z,4.36
2022-12-08T13:00:28.336Z,4.34
2022-12-08T13:02:56.498Z,4.32
2022-12-08T13:05:26.213Z,4.32
2022-12-08T13:07:56.146Z,4.33
2022-12-08T13:10:25.508Z,4.35
2022-12-08T13:13:15.544Z,4.37
2022-12-08T13:15:49.690Z,4.41
2022-12-08T13:18:20.941Z,4.44
2022-12-08T13:20:51.553Z,4.49
2022-12-08T13:23:44.529Z,4.52
2022-12-08T13:26:16.538Z,4.55
2022-12-08T13:29:16.711Z,4.55
2022-12-08T13:31:50.052Z,4.54
2022-12-08T13:34:21.880Z,4.53
2022-12-08T13:36:57.232Z,4.52
2022-12-08T13:39:28.967Z,4.51
2022-12-08T13:42:02.051Z,4.51
2022-12-08T13:45:18.682Z,4.50
2022-12-08T13:47:34.673Z,4.52
2022-12-08T13:58:37.263Z,4.44
2022-12-08T14:01:10.739Z,4.44
2022-12-08T14:03:58.302Z,4.43
2022-12-08T14:06:36.547Z,4.39
2022-12-08T14:09:10.852Z,4.38
2022-12-08T14:11:40.914Z,4.37
2022-12-08T14:14:14.300Z,4.35
2022-12-08T14:16:49.118Z,4.32
2022-12-08T14:19:19.304Z,4.28
2022-12-08T14:21:54.437Z,4.27
2022-12-08T14:24:22.682Z,4.24
2022-12-08T14:26:52.777Z,4.23
2022-12-08T14:29:35.970Z,4.20
2022-12-08T14:32:04.529Z,4.17
2022-12-08T14:34:35.105Z,4.14
2022-12-08T14:37:01.893Z,4.10
2022-12-08T14:39:28.654Z,4.08
2022-12-08T14:42:00.085Z,4.06
2022-12-08T14:44:30.952Z,4.03
2022-12-08T14:47:07.357Z,4.01
2022-12-08T14:49:35.974Z,3.98
2022-12-08T14:52:08.583Z,3.97
2022-12-08T14:54:35.822Z,3.94
2022-12-08T14:57:03.327Z,3.91
2022-12-08T14:59:32.852Z,3.87
2022-12-08T15:02:20.927Z,3.83
2022-12-08T15:04:50.507Z,3.79
2022-12-08T15:07:19.499Z,3.75
2022-12-08T15:09:48.756Z,3.71
2022-12-08T15:12:26.815Z,3.68
2022-12-08T15:14:56.594Z,3.65
2022-12-08T15:17:34.753Z,3.61
2022-12-08T15:20:03.383Z,3.59
2022-12-08T15:22:30.781Z,3.56
2022-12-08T15:24:57.979Z,3.54
2022-12-08T15:27:25.594Z,3.50
2022-12-08T15:29:53.012Z,3.48
2022-12-08T15:32:23.191Z,3.44
2022-12-08T15:34:51.409Z,3.41
2022-12-08T15:37:22.104Z,3.38
2022-12-08T15:39:49.236Z,3.34
2022-12-08T15:42:16.054Z,3.30
2022-12-08T15:44:43.257Z,3.28
2022-12-08T15:47:16.208Z,3.26
2022-12-08T15:49:43.042Z,3.22
2022-12-08T15:52:15.913Z,3.19
2022-12-08T15:54:42.690Z,3.16
2022-12-08T15:57:29.987Z,3.13
2022-12-08T16:00:36.415Z,3.10
2022-12-08T16:03:42.265Z,3.07
2022-12-08T16:06:16.547Z,3.02
2022-12-08T16:08:49.465Z,2.99
2022-12-08T16:11:56.811Z,2.94
2022-12-08T16:14:48.793Z,2.91
2022-12-08T16:16:56.384Z,2.87
2022-12-08T16:19:23.102Z,2.84
2022-12-08T16:22:30.297Z,2.80
2022-12-08T16:24:37.875Z,2.78
2022-12-08T16:29:51.568Z,2.76
2022-12-08T16:32:18.400Z,2.74
2022-12-08T16:34:45.283Z,2.70
2022-12-08T16:37:15.142Z,2.68
2022-12-08T16:39:45.917Z,2.66
2022-12-08T16:42:14.354Z,2.65
2022-12-08T16:44:41.600Z,2.62
2022-12-08T16:47:09.149Z,2.61
2022-12-08T16:49:37.054Z,2.59
2022-12-08T16:52:04.186Z,2.57
2022-12-08T16:54:31.178Z,2.54
2022-12-08T16:57:01.043Z,2.52
2022-12-08T16:59:27.721Z,2.48
2022-12-08T17:01:54.439Z,2.46
2022-12-08T17:04:36.693Z,2.44
2022-12-08T17:07:03.403Z,2.40
2022-12-08T17:09:31.274Z,2.36
2022-12-08T17:12:03.776Z,2.35
2022-12-08T17:14:33.478Z,2.32
2022-12-08T17:17:00.260Z,2.29
2022-12-08T17:19:27.047Z,2.28
2022-12-08T17:21:53.717Z,2.28
2022-12-08T17:24:22.272Z,2.27
2022-12-08T17:26:49.252Z,2.25
2022-12-08T17:29:17.353Z,2.23
2022-12-08T17:31:44.112Z,2.22
2022-12-08T17:34:11.144Z,2.23
2022-12-08T17:36:38.072Z,2.19
2022-12-08T17:39:05.697Z,2.18
2022-12-08T17:41:32.800Z,2.17
2022-12-08T17:43:59.527Z,2.15
2022-12-08T17:46:27.847Z,2.11
2022-12-08T17:48:54.546Z,2.08
2022-12-08T17:51:21.243Z,2.05
2022-12-08T17:53:48.098Z,2.03
2022-12-08T17:56:18.294Z,2.01
2022-12-08T17:58:48.542Z,1.99
2022-12-08T18:01:17.995Z,1.98
2022-12-08T18:03:46.064Z,1.96
2022-12-08T18:06:12.878Z,1.95
2022-12-08T18:08:40.230Z,1.92
2022-12-08T18:11:12.054Z,1.91
2022-12-08T18:13:38.881Z,1.87
2022-12-08T18:16:05.798Z,1.83
2022-12-08T18:18:32.576Z,1.81
2022-12-08T18:21:00.732Z,1.78
2022-12-08T18:23:27.454Z,1.74
2022-12-08T18:25:54.306Z,1.71
2022-12-08T18:28:21.063Z,1.68
2022-12-08T18:30:47.839Z,1.65
2022-12-08T18:33:14.546Z,1.63
2022-12-08T18:35:41.283Z,1.61
2022-12-08T18:38:09.411Z,1.59
2022-12-08T18:40:36.545Z,1.58
2022-12-08T18:43:03.248Z,1.57
2022-12-08T18:45:29.938Z,1.58
2022-12-08T18:47:56.607Z,1.57
2022-12-08T18:50:23.369Z,1.57
2022-12-08T18:52:50.068Z,1.58
2022-12-08T18:55:18.362Z,1.59
2022-12-08T18:57:45.138Z,1.61
2022-12-08T19:00:14.662Z,1.61
2022-12-08T19:02:42.117Z,1.61
2022-12-08T19:05:10.850Z,1.59
2022-12-08T19:07:38.252Z,1.60
2022-12-08T19:10:06.931Z,1.59
2022-12-08T19:12:35.249Z,1.59
2022-12-08T19:15:01.982Z,1.58
2022-12-08T19:17:28.626Z,1.58
2022-12-08T19:19:55.359Z,1.56
2022-12-08T19:22:22.011Z,1.55
2022-12-08T19:24:48.660Z,1.54
2022-12-08T19:27:15.383Z,1.52
2022-12-08T19:29:43.480Z,1.51
2022-12-08T19:32:10.148Z,1.49
2022-12-08T19:34:36.773Z,1.46
2022-12-08T19:37:03.525Z,1.45
2022-12-08T19:39:30.370Z,1.42
2022-12-08T19:41:57.114Z,1.40
2022-12-08T19:44:26.139Z,1.37
2022-12-08T19:46:54.400Z,1.33
2022-12-08T19:49:21.186Z,1.30
2022-12-08T19:51:47.828Z,1.28
2022-12-08T19:54:14.562Z,1.26
2022-12-08T19:56:41.183Z,1.25
2022-12-08T19:59:07.972Z,1.22
2022-12-08T20:01:34.721Z,1.20
2022-12-08T20:04:02.924Z,1.15
2022-12-08T20:06:29.586Z,1.12
2022-12-08T20:08:56.273Z,1.10
2022-12-08T20:11:23.038Z,1.07
2022-12-08T20:13:49.725Z,1.05
2022-12-08T20:16:16.740Z,1.02
2022-12-08T20:18:43.794Z,1.00
2022-12-08T20:21:12.340Z,0.98
2022-12-08T20:23:39.048Z,0.94
2022-12-08T20:26:06.498Z,0.91
2022-12-08T20:28:34.487Z,0.90
2022-12-08T20:31:01.490Z,0.87
2022-12-08T20:33:28.320Z,0.84
2022-12-08T20:35:59.214Z,0.81
2022-12-08T20:38:27.777Z,0.79
2022-12-08T20:40:54.485Z,0.76
2022-12-08T20:43:21.602Z,0.74
2022-12-08T20:45:48.315Z,0.72
2022-12-08T20:48:14.977Z,0.69
2022-12-08T20:50:42.046Z,0.64
2022-12-08T20:53:09.240Z,0.61
2022-12-08T20:55:40.605Z,0.59
2022-12-08T20:58:07.302Z,0.58
2022-12-08T21:00:34.146Z,0.56
2022-12-08T21:03:01.263Z,0.56
2022-12-08T21:05:28.399Z,0.52
2022-12-08T21:07:55.286Z,0.51
2022-12-08T21:10:22.192Z,0.49
2022-12-08T21:12:50.367Z,0.47
2022-12-08T21:15:17.325Z,0.42
2022-12-08T21:17:44.187Z,0.43
2022-12-08T21:20:11.952Z,0.42
2022-12-08T21:22:38.856Z,0.41
2022-12-08T21:25:06.488Z,0.40
2022-12-08T21:27:33.707Z,0.39
2022-12-08T21:30:02.071Z,0.38
2022-12-08T21:32:30.602Z,0.37
2022-12-08T21:34:57.676Z,0.36
2022-12-08T21:37:24.915Z,0.36
2022-12-08T21:39:51.863Z,0.35
2022-12-08T21:42:21.473Z,0.35
2022-12-08T21:44:49.587Z,0.36
2022-12-08T21:47:17.787Z,0.35
2022-12-08T21:49:44.560Z,0.35
2022-12-08T21:52:11.616Z,0.37
2022-12-08T21:54:38.441Z,0.35
2022-12-08T21:57:05.251Z,0.34
2022-12-08T21:59:32.188Z,0.33
2022-12-08T22:01:58.999Z,0.32
2022-12-08T22:04:27.679Z,0.31
2022-12-08T22:06:54.485Z,0.29
2022-12-08T22:09:21.574Z,0.27
2022-12-08T22:11:48.611Z,0.26
2022-12-08T22:14:15.573Z,0.23
2022-12-08T22:16:42.830Z,0.21
2022-12-08T22:19:10.182Z,0.20
2022-12-08T22:21:38.491Z,0.19
2022-12-08T22:24:06.173Z,0.18
2022-12-08T22:26:33.533Z,0.15
2022-12-08T22:29:00.616Z,0.14
2022-12-08T22:31:28.415Z,0.10
2022-12-08T22:33:55.295Z,0.07
2022-12-08T22:36:23.867Z,0.02
2022-12-08T22:38:53.404Z,-0.01
2022-12-08T22:41:21.179Z,-0.03
2022-12-08T22:43:48.660Z,-0.05
2022-12-08T22:46:17.301Z,-0.07
2022-12-08T22:48:44.504Z,-0.08
2022-12-08T22:51:11.396Z,-0.09
2022-12-08T22:53:38.322Z,-0.10
2022-12-08T22:56:08.184Z,-0.10
2022-12-08T22:58:34.908Z,-0.12
2022-12-08T23:01:01.740Z,-0.15
2022-12-08T23:03:28.776Z,-0.19
2022-12-08T23:05:55.613Z,-0.24
2022-12-08T23:08:22.487Z,-0.27
2022-12-08T23:10:51.443Z,-0.31
2022-12-08T23:13:20.788Z,-0.33
2022-12-08T23:15:47.773Z,-0.34
2022-12-08T23:18:17.476Z,-0.35
2022-12-08T23:20:44.380Z,-0.37
2022-12-08T23:23:11.161Z,-0.38
2022-12-08T23:25:40.430Z,-0.41
2022-12-08T23:28:07.862Z,-0.45
2022-12-08T23:30:36.511Z,-0.48
2022-12-08T23:33:03.664Z,-0.49
2022-12-08T23:35:30.423Z,-0.51
2022-12-08T23:37:57.156Z,-0.54
2022-12-08T23:40:24.188Z,-0.56
2022-12-08T23:42:50.854Z,-0.60
2022-12-08T23:45:17.750Z,-0.61
2022-12-08T23:47:46.047Z,-0.61
2022-12-08T23:50:13.149Z,-0.64
2022-12-08T23:52:40.223Z,-0.67
2022-12-08T23:55:08.350Z,-0.69
2022-12-08T23:57:35.667Z,-0.71
